sensor_id;sensor_type;location;lat;lon;timestamp;pressure;altitude;pressure_sealevel;temperature;humidity
70488;BME280;57976;48.174;16.370;2024-03-06T00:00:22;99231.55;;;8.89;100.00
70488;BME280;57976;48.174;16.370;2024-03-06T00:02:30;99233.80;;;8.85;100.00
70488;BME280;57976;48.174;16.370;2024-03-06T00:04:35;99235.13;;;8.83;100.00
70488;BME280;57976;48.174;16.370;2024-03-06T00:06:40;99235.84;;;8.79;100.00
70488;BME280;57976;48.174;16.370;2024-03-06T00:08:45;99236.27;;;8.76;100.00
70488;BME280;57976;48.174;16.370;2024-03-06T00:10:49;99236.70;;;8.73;100.00
70488;BME280;57976;48.174;16.370;2024-03-06T00:12:54;99241.77;;;8.71;100.00
70488;BME280;57976;48.174;16.370;2024-03-06T00:14:59;99240.98;;;8.70;100.00
70488;BME280;57976;48.174;16.370;2024-03-06T00:17:04;99243.34;;;8.70;100.00
70488;BME280;57976;48.174;16.370;2024-03-06T00:19:09;99244.00;;;8.70;100.00
70488;BME280;57976;48.174;16.370;2024-03-06T00:21:14;99242.46;;;8.71;100.00
70488;BME280;57976;48.174;16.370;2024-03-06T00:23:24;99246.16;;;8.73;100.00
70488;BME280;57976;48.174;16.370;2024-03-06T00:25:29;99240.13;;;8.70;100.00
70488;BME280;57976;48.174;16.370;2024-03-06T00:27:34;99244.32;;;8.68;100.00
70488;BME280;57976;48.174;16.370;2024-03-06T00:29:39;99243.16;;;8.67;100.00
70488;BME280;57976;48.174;16.370;2024-03-06T00:31:45;99246.15;;;8.66;100.00
70488;BME280;57976;48.174;16.370;2024-03-06T00:33:50;99246.62;;;8.65;100.00
70488;BME280;57976;48.174;16.370;2024-03-06T00:35:55;99243.00;;;8.63;100.00
70488;BME280;57976;48.174;16.370;2024-03-06T00:38:02;99245.27;;;8.62;100.00
70488;BME280;57976;48.174;16.370;2024-03-06T00:40:10;99251.56;;;8.59;100.00
70488;BME280;57976;48.174;16.370;2024-03-06T00:42:15;99252.60;;;8.58;100.00
70488;BME280;57976;48.174;16.370;2024-03-06T00:44:20;99252.79;;;8.57;100.00
70488;BME280;57976;48.174;16.370;2024-03-06T00:46:24;99250.77;;;8.55;100.00
70488;BME280;57976;48.174;16.370;2024-03-06T00:48:29;99251.63;;;8.54;100.00
70488;BME280;57976;48.174;16.370;2024-03-06T00:50:34;99254.55;;;8.50;100.00
70488;BME280;57976;48.174;16.370;2024-03-06T00:52:39;99254.27;;;8.44;100.00
70488;BME280;57976;48.174;16.370;2024-03-06T00:54:43;99254.74;;;8.40;100.00
70488;BME280;57976;48.174;16.370;2024-03-06T00:56:48;99255.07;;;8.36;100.00
70488;BME280;57976;48.174;16.370;2024-03-06T00:58:54;99256.75;;;8.34;100.00
70488;BME280;57976;48.174;16.370;2024-03-06T01:00:59;99254.47;;;8.30;100.00
70488;BME280;57976;48.174;16.370;2024-03-06T01:03:04;99252.67;;;8.27;100.00
70488;BME280;57976;48.174;16.370;2024-03-06T01:05:09;99247.27;;;8.23;100.00
70488;BME280;57976;48.174;16.370;2024-03-06T01:07:15;99248.25;;;8.19;100.00
70488;BME280;57976;48.174;16.370;2024-03-06T01:09:21;99245.90;;;8.17;100.00
70488;BME280;57976;48.174;16.370;2024-03-06T01:11:26;99248.11;;;8.14;100.00
70488;BME280;57976;48.174;16.370;2024-03-06T01:13:32;99245.55;;;8.12;100.00
70488;BME280;57976;48.174;16.370;2024-03-06T01:15:38;99248.67;;;8.13;100.00
70488;BME280;57976;48.174;16.370;2024-03-06T01:17:42;99246.89;;;8.14;100.00
70488;BME280;57976;48.174;16.370;2024-03-06T01:19:47;99246.33;;;8.17;100.00
70488;BME280;57976;48.174;16.370;2024-03-06T01:21:52;99250.34;;;8.19;100.00
70488;BME280;57976;48.174;16.370;2024-03-06T01:23:57;99251.73;;;8.20;100.00
70488;BME280;57976;48.174;16.370;2024-03-06T01:26:01;99247.88;;;8.19;100.00
70488;BME280;57976;48.174;16.370;2024-03-06T01:28:06;99253.16;;;8.21;100.00
70488;BME280;57976;48.174;16.370;2024-03-06T01:30:12;99252.17;;;8.19;100.00
70488;BME280;57976;48.174;16.370;2024-03-06T01:32:16;99259.20;;;8.19;100.00
70488;BME280;57976;48.174;16.370;2024-03-06T01:34:24;99261.22;;;8.19;100.00
70488;BME280;57976;48.174;16.370;2024-03-06T01:36:30;99264.42;;;8.17;100.00
70488;BME280;57976;48.174;16.370;2024-03-06T01:38:35;99261.05;;;8.15;100.00
70488;BME280;57976;48.174;16.370;2024-03-06T01:40:44;99261.34;;;8.18;100.00
70488;BME280;57976;48.174;16.370;2024-03-06T01:42:49;99263.06;;;8.18;100.00
70488;BME280;57976;48.174;16.370;2024-03-06T01:44:54;99262.95;;;8.19;100.00
70488;BME280;57976;48.174;16.370;2024-03-06T01:46:59;99264.92;;;8.21;100.00
70488;BME280;57976;48.174;16.370;2024-03-06T01:49:07;99267.20;;;8.21;100.00
70488;BME280;57976;48.174;16.370;2024-03-06T01:51:14;99267.16;;;8.21;100.00
70488;BME280;57976;48.174;16.370;2024-03-06T01:53:19;99266.42;;;8.21;100.00
70488;BME280;57976;48.174;16.370;2024-03-06T01:55:24;99271.92;;;8.19;100.00
70488;BME280;57976;48.174;16.370;2024-03-06T01:57:29;99272.20;;;8.15;100.00
70488;BME280;57976;48.174;16.370;2024-03-06T01:59:34;99274.25;;;8.12;100.00
70488;BME280;57976;48.174;16.370;2024-03-06T02:01:41;99277.31;;;8.08;100.00
70488;BME280;57976;48.174;16.370;2024-03-06T02:03:49;99278.45;;;8.05;100.00
70488;BME280;57976;48.174;16.370;2024-03-06T02:05:56;99274.02;;;8.02;100.00
70488;BME280;57976;48.174;16.370;2024-03-06T02:08:01;99277.19;;;8.01;100.00
70488;BME280;57976;48.174;16.370;2024-03-06T02:10:08;99275.80;;;7.99;100.00
70488;BME280;57976;48.174;16.370;2024-03-06T02:12:15;99280.23;;;7.98;100.00
70488;BME280;57976;48.174;16.370;2024-03-06T02:14:20;99280.08;;;7.98;100.00
70488;BME280;57976;48.174;16.370;2024-03-06T02:16:24;99278.10;;;7.96;100.00
70488;BME280;57976;48.174;16.370;2024-03-06T02:18:29;99283.91;;;7.97;100.00
70488;BME280;57976;48.174;16.370;2024-03-06T02:20:34;99282.80;;;7.96;100.00
70488;BME280;57976;48.174;16.370;2024-03-06T02:22:39;99283.23;;;7.93;100.00
70488;BME280;57976;48.174;16.370;2024-03-06T02:24:47;99281.62;;;7.91;100.00
70488;BME280;57976;48.174;16.370;2024-03-06T02:26:55;99285.63;;;7.88;100.00
70488;BME280;57976;48.174;16.370;2024-03-06T02:29:00;99283.66;;;7.87;100.00
70488;BME280;57976;48.174;16.370;2024-03-06T02:31:08;99281.04;;;7.87;100.00
70488;BME280;57976;48.174;16.370;2024-03-06T02:33:13;99282.00;;;7.89;100.00
70488;BME280;57976;48.174;16.370;2024-03-06T02:35:18;99283.73;;;7.89;100.00
70488;BME280;57976;48.174;16.370;2024-03-06T02:37:24;99281.96;;;7.89;100.00
70488;BME280;57976;48.174;16.370;2024-03-06T02:39:28;99280.73;;;7.90;100.00
70488;BME280;57976;48.174;16.370;2024-03-06T02:41:33;99282.99;;;7.90;100.00
70488;BME280;57976;48.174;16.370;2024-03-06T02:43:39;99287.28;;;7.91;100.00
70488;BME280;57976;48.174;16.370;2024-03-06T02:45:47;99292.70;;;7.91;100.00
70488;BME280;57976;48.174;16.370;2024-03-06T02:47:51;99291.00;;;7.91;100.00
70488;BME280;57976;48.174;16.370;2024-03-06T02:49:57;99290.05;;;7.90;100.00
70488;BME280;57976;48.174;16.370;2024-03-06T02:52:02;99288.56;;;7.92;100.00
70488;BME280;57976;48.174;16.370;2024-03-06T02:54:07;99286.73;;;7.92;100.00
70488;BME280;57976;48.174;16.370;2024-03-06T02:56:18;99286.71;;;7.91;100.00
70488;BME280;57976;48.174;16.370;2024-03-06T02:58:25;99287.63;;;7.89;100.00
70488;BME280;57976;48.174;16.370;2024-03-06T03:00:30;99293.55;;;7.89;100.00
70488;BME280;57976;48.174;16.370;2024-03-06T03:02:35;99292.55;;;7.87;100.00
70488;BME280;57976;48.174;16.370;2024-03-06T03:04:39;99299.29;;;7.88;100.00
70488;BME280;57976;48.174;16.370;2024-03-06T03:06:44;99301.71;;;7.88;100.00
70488;BME280;57976;48.174;16.370;2024-03-06T03:08:49;99298.14;;;7.87;100.00
70488;BME280;57976;48.174;16.370;2024-03-06T03:10:54;99301.21;;;7.88;100.00
70488;BME280;57976;48.174;16.370;2024-03-06T03:12:58;99299.92;;;7.86;100.00
70488;BME280;57976;48.174;16.370;2024-03-06T03:15:04;99298.92;;;7.82;100.00
70488;BME280;57976;48.174;16.370;2024-03-06T03:17:09;99304.63;;;7.81;100.00
70488;BME280;57976;48.174;16.370;2024-03-06T03:19:14;99302.27;;;7.76;100.00
70488;BME280;57976;48.174;16.370;2024-03-06T03:21:19;99304.25;;;7.75;100.00
70488;BME280;57976;48.174;16.370;2024-03-06T03:23:23;99303.45;;;7.70;100.00
70488;BME280;57976;48.174;16.370;2024-03-06T03:25:28;99303.32;;;7.67;100.00
70488;BME280;57976;48.174;16.370;2024-03-06T03:27:33;99301.98;;;7.62;100.00
70488;BME280;57976;48.174;16.370;2024-03-06T03:29:41;99307.86;;;7.55;100.00
70488;BME280;57976;48.174;16.370;2024-03-06T03:31:46;99305.45;;;7.50;100.00
70488;BME280;57976;48.174;16.370;2024-03-06T03:33:51;99306.71;;;7.47;100.00
70488;BME280;57976;48.174;16.370;2024-03-06T03:35:55;99309.29;;;7.45;100.00
70488;BME280;57976;48.174;16.370;2024-03-06T03:38:00;99306.33;;;7.40;100.00
70488;BME280;57976;48.174;16.370;2024-03-06T03:40:06;99309.63;;;7.36;100.00
70488;BME280;57976;48.174;16.370;2024-03-06T03:42:11;99306.42;;;7.32;100.00
70488;BME280;57976;48.174;16.370;2024-03-06T03:44:19;99309.45;;;7.27;100.00
70488;BME280;57976;48.174;16.370;2024-03-06T03:46:24;99312.52;;;7.22;100.00
70488;BME280;57976;48.174;16.370;2024-03-06T03:48:28;99315.42;;;7.19;100.00
70488;BME280;57976;48.174;16.370;2024-03-06T03:50:33;99318.86;;;7.16;100.00
70488;BME280;57976;48.174;16.370;2024-03-06T03:52:38;99318.25;;;7.14;100.00
70488;BME280;57976;48.174;16.370;2024-03-06T03:54:43;99320.11;;;7.13;100.00
70488;BME280;57976;48.174;16.370;2024-03-06T03:56:51;99320.59;;;7.10;100.00
70488;BME280;57976;48.174;16.370;2024-03-06T03:58:57;99322.10;;;7.06;100.00
70488;BME280;57976;48.174;16.370;2024-03-06T04:01:01;99320.73;;;7.01;100.00
70488;BME280;57976;48.174;16.370;2024-03-06T04:03:09;99325.70;;;6.96;100.00
70488;BME280;57976;48.174;16.370;2024-03-06T04:05:14;99324.54;;;6.93;100.00
70488;BME280;57976;48.174;16.370;2024-03-06T04:07:19;99328.69;;;6.90;100.00
70488;BME280;57976;48.174;16.370;2024-03-06T04:09:27;99327.60;;;6.89;100.00
70488;BME280;57976;48.174;16.370;2024-03-06T04:11:31;99329.73;;;6.87;100.00
70488;BME280;57976;48.174;16.370;2024-03-06T04:13:37;99328.14;;;6.87;100.00
70488;BME280;57976;48.174;16.370;2024-03-06T04:15:42;99326.64;;;6.85;100.00
70488;BME280;57976;48.174;16.370;2024-03-06T04:17:48;99329.73;;;6.85;100.00
70488;BME280;57976;48.174;16.370;2024-03-06T04:19:56;99328.80;;;6.85;100.00
70488;BME280;57976;48.174;16.370;2024-03-06T04:22:04;99334.02;;;6.84;100.00
70488;BME280;57976;48.174;16.370;2024-03-06T04:24:08;99334.70;;;6.83;100.00
70488;BME280;57976;48.174;16.370;2024-03-06T04:26:16;99333.50;;;6.82;100.00
70488;BME280;57976;48.174;16.370;2024-03-06T04:28:21;99333.77;;;6.81;100.00
70488;BME280;57976;48.174;16.370;2024-03-06T04:30:29;99336.21;;;6.80;100.00
70488;BME280;57976;48.174;16.370;2024-03-06T04:32:33;99332.86;;;6.80;100.00
70488;BME280;57976;48.174;16.370;2024-03-06T04:34:39;99333.56;;;6.79;100.00
70488;BME280;57976;48.174;16.370;2024-03-06T04:36:43;99335.86;;;6.77;100.00
70488;BME280;57976;48.174;16.370;2024-03-06T04:38:51;99335.61;;;6.77;100.00
70488;BME280;57976;48.174;16.370;2024-03-06T04:40:58;99334.95;;;6.76;100.00
70488;BME280;57976;48.174;16.370;2024-03-06T04:43:03;99337.17;;;6.75;100.00
70488;BME280;57976;48.174;16.370;2024-03-06T04:45:12;99341.61;;;6.75;100.00
70488;BME280;57976;48.174;16.370;2024-03-06T04:47:17;99343.57;;;6.73;100.00
70488;BME280;57976;48.174;16.370;2024-03-06T04:49:22;99343.13;;;6.73;100.00
70488;BME280;57976;48.174;16.370;2024-03-06T04:51:28;99344.96;;;6.73;100.00
70488;BME280;57976;48.174;16.370;2024-03-06T04:53:33;99346.95;;;6.71;100.00
70488;BME280;57976;48.174;16.370;2024-03-06T04:55:38;99345.15;;;6.70;100.00
70488;BME280;57976;48.174;16.370;2024-03-06T04:57:45;99349.77;;;6.69;100.00
70488;BME280;57976;48.174;16.370;2024-03-06T04:59:50;99347.11;;;6.68;100.00
70488;BME280;57976;48.174;16.370;2024-03-06T05:01:54;99350.69;;;6.68;100.00
70488;BME280;57976;48.174;16.370;2024-03-06T05:03:59;99350.19;;;6.67;100.00
70488;BME280;57976;48.174;16.370;2024-03-06T05:06:22;99350.63;;;6.67;100.00
70488;BME280;57976;48.174;16.370;2024-03-06T05:08:47;99351.23;;;6.66;100.00
70488;BME280;57976;48.174;16.370;2024-03-06T05:11:09;99353.00;;;6.64;100.00
70488;BME280;57976;48.174;16.370;2024-03-06T05:13:32;99349.76;;;6.62;100.00
70488;BME280;57976;48.174;16.370;2024-03-06T05:15:54;99350.98;;;6.62;100.00
70488;BME280;57976;48.174;16.370;2024-03-06T05:18:16;99353.92;;;6.64;100.00
70488;BME280;57976;48.174;16.370;2024-03-06T05:20:38;99349.94;;;6.65;100.00
70488;BME280;57976;48.174;16.370;2024-03-06T05:23:00;99352.55;;;6.65;100.00
70488;BME280;57976;48.174;16.370;2024-03-06T05:25:23;99353.64;;;6.65;100.00
70488;BME280;57976;48.174;16.370;2024-03-06T05:27:46;99353.12;;;6.65;100.00
70488;BME280;57976;48.174;16.370;2024-03-06T05:30:09;99356.92;;;6.65;100.00
70488;BME280;57976;48.174;16.370;2024-03-06T05:32:31;99354.80;;;6.66;100.00
70488;BME280;57976;48.174;16.370;2024-03-06T05:34:56;99359.83;;;6.66;100.00
70488;BME280;57976;48.174;16.370;2024-03-06T05:37:18;99360.61;;;6.63;100.00
70488;BME280;57976;48.174;16.370;2024-03-06T05:39:40;99358.93;;;6.62;100.00
70488;BME280;57976;48.174;16.370;2024-03-06T05:42:03;99355.90;;;6.61;100.00
70488;BME280;57976;48.174;16.370;2024-03-06T05:44:25;99357.64;;;6.61;100.00
70488;BME280;57976;48.174;16.370;2024-03-06T05:46:48;99359.27;;;6.62;100.00
70488;BME280;57976;48.174;16.370;2024-03-06T05:49:10;99357.90;;;6.63;100.00
70488;BME280;57976;48.174;16.370;2024-03-06T05:51:32;99359.23;;;6.65;100.00
70488;BME280;57976;48.174;16.370;2024-03-06T05:53:55;99360.83;;;6.65;100.00
70488;BME280;57976;48.174;16.370;2024-03-06T05:56:18;99366.13;;;6.68;100.00
70488;BME280;57976;48.174;16.370;2024-03-06T05:58:40;99370.55;;;6.70;100.00
70488;BME280;57976;48.174;16.370;2024-03-06T06:00:48;99371.30;;;6.71;100.00
70488;BME280;57976;48.174;16.370;2024-03-06T06:02:53;99373.89;;;6.72;100.00
70488;BME280;57976;48.174;16.370;2024-03-06T06:05:00;99372.16;;;6.73;100.00
70488;BME280;57976;48.174;16.370;2024-03-06T06:07:27;99375.30;;;6.75;100.00
70488;BME280;57976;48.174;16.370;2024-03-06T06:09:33;99378.67;;;6.78;100.00
70488;BME280;57976;48.174;16.370;2024-03-06T06:11:40;99379.11;;;6.79;100.00
70488;BME280;57976;48.174;16.370;2024-03-06T06:13:46;99379.05;;;6.81;100.00
70488;BME280;57976;48.174;16.370;2024-03-06T06:15:52;99381.64;;;6.81;100.00
70488;BME280;57976;48.174;16.370;2024-03-06T06:17:57;99388.05;;;6.84;100.00
70488;BME280;57976;48.174;16.370;2024-03-06T06:20:01;99385.46;;;6.88;100.00
70488;BME280;57976;48.174;16.370;2024-03-06T06:22:09;99387.14;;;6.90;100.00
70488;BME280;57976;48.174;16.370;2024-03-06T06:24:17;99388.69;;;6.95;100.00
70488;BME280;57976;48.174;16.370;2024-03-06T06:26:21;99392.52;;;6.99;100.00
70488;BME280;57976;48.174;16.370;2024-03-06T06:28:27;99391.45;;;7.03;100.00
70488;BME280;57976;48.174;16.370;2024-03-06T06:30:32;99392.73;;;7.06;100.00
70488;BME280;57976;48.174;16.370;2024-03-06T06:32:41;99389.47;;;7.06;100.00
70488;BME280;57976;48.174;16.370;2024-03-06T06:34:47;99394.27;;;7.07;100.00
70488;BME280;57976;48.174;16.370;2024-03-06T06:36:51;99396.55;;;7.11;100.00
70488;BME280;57976;48.174;16.370;2024-03-06T06:38:56;99397.39;;;7.11;100.00
70488;BME280;57976;48.174;16.370;2024-03-06T06:41:01;99406.85;;;7.15;100.00
70488;BME280;57976;48.174;16.370;2024-03-06T06:43:05;99405.95;;;7.16;100.00
70488;BME280;57976;48.174;16.370;2024-03-06T06:45:13;99410.54;;;7.19;99.69
70488;BME280;57976;48.174;16.370;2024-03-06T06:47:19;99405.19;;;7.21;99.80
70488;BME280;57976;48.174;16.370;2024-03-06T06:49:24;99406.40;;;7.23;99.98
70488;BME280;57976;48.174;16.370;2024-03-06T06:51:29;99410.68;;;7.25;99.84
70488;BME280;57976;48.174;16.370;2024-03-06T06:53:34;99409.78;;;7.30;99.83
70488;BME280;57976;48.174;16.370;2024-03-06T06:55:39;99408.04;;;7.33;99.41
70488;BME280;57976;48.174;16.370;2024-03-06T06:57:43;99412.46;;;7.37;99.11
70488;BME280;57976;48.174;16.370;2024-03-06T06:59:48;99411.66;;;7.40;98.49
70488;BME280;57976;48.174;16.370;2024-03-06T07:01:53;99407.66;;;7.44;97.98
70488;BME280;57976;48.174;16.370;2024-03-06T07:03:58;99415.05;;;7.47;97.62
70488;BME280;57976;48.174;16.370;2024-03-06T07:06:04;99412.31;;;7.52;98.11
70488;BME280;57976;48.174;16.370;2024-03-06T07:08:09;99415.73;;;7.59;97.46
70488;BME280;57976;48.174;16.370;2024-03-06T07:10:15;99413.50;;;7.65;96.93
70488;BME280;57976;48.174;16.370;2024-03-06T07:12:23;99413.56;;;7.68;97.01
70488;BME280;57976;48.174;16.370;2024-03-06T07:14:28;99411.19;;;7.74;96.05
70488;BME280;57976;48.174;16.370;2024-03-06T07:16:33;99412.36;;;7.78;95.94
70488;BME280;57976;48.174;16.370;2024-03-06T07:18:37;99414.04;;;7.84;95.66
70488;BME280;57976;48.174;16.370;2024-03-06T07:20:43;99416.30;;;7.87;94.81
70488;BME280;57976;48.174;16.370;2024-03-06T07:22:48;99414.85;;;7.89;94.73
70488;BME280;57976;48.174;16.370;2024-03-06T07:24:52;99419.32;;;7.93;93.97
70488;BME280;57976;48.174;16.370;2024-03-06T07:26:57;99418.82;;;7.98;94.05
70488;BME280;57976;48.174;16.370;2024-03-06T07:29:03;99419.04;;;8.04;93.67
70488;BME280;57976;48.174;16.370;2024-03-06T07:31:11;99418.73;;;8.08;93.06
70488;BME280;57976;48.174;16.370;2024-03-06T07:33:17;99418.84;;;8.10;92.87
70488;BME280;57976;48.174;16.370;2024-03-06T07:35:22;99424.98;;;8.13;93.22
70488;BME280;57976;48.174;16.370;2024-03-06T07:37:30;99421.52;;;8.21;92.07
70488;BME280;57976;48.174;16.370;2024-03-06T07:39:37;99422.42;;;8.26;91.29
70488;BME280;57976;48.174;16.370;2024-03-06T07:41:45;99422.05;;;8.31;91.07
70488;BME280;57976;48.174;16.370;2024-03-06T07:43:49;99432.66;;;8.35;89.70
70488;BME280;57976;48.174;16.370;2024-03-06T07:45:54;99436.13;;;8.36;88.98
70488;BME280;57976;48.174;16.370;2024-03-06T07:48:02;99431.60;;;8.37;88.41
70488;BME280;57976;48.174;16.370;2024-03-06T07:50:08;99428.73;;;8.35;88.17
70488;BME280;57976;48.174;16.370;2024-03-06T07:52:15;99429.89;;;8.35;88.04
70488;BME280;57976;48.174;16.370;2024-03-06T07:54:19;99442.03;;;8.35;88.11
70488;BME280;57976;48.174;16.370;2024-03-06T07:56:24;99434.94;;;8.35;87.74
70488;BME280;57976;48.174;16.370;2024-03-06T07:58:29;99437.04;;;8.40;88.20
70488;BME280;57976;48.174;16.370;2024-03-06T08:00:34;99437.84;;;8.45;88.06
70488;BME280;57976;48.174;16.370;2024-03-06T08:02:41;99440.23;;;8.50;87.00
70488;BME280;57976;48.174;16.370;2024-03-06T08:04:49;99440.80;;;8.52;86.14
70488;BME280;57976;48.174;16.370;2024-03-06T08:06:54;99443.25;;;8.52;85.95
70488;BME280;57976;48.174;16.370;2024-03-06T08:09:00;99447.02;;;8.51;86.02
70488;BME280;57976;48.174;16.370;2024-03-06T08:11:10;99453.87;;;8.52;85.95
70488;BME280;57976;48.174;16.370;2024-03-06T08:13:16;99447.36;;;8.54;85.37
70488;BME280;57976;48.174;16.370;2024-03-06T08:15:21;99445.51;;;8.53;85.01
70488;BME280;57976;48.174;16.370;2024-03-06T08:17:26;99454.70;;;8.47;84.95
70488;BME280;57976;48.174;16.370;2024-03-06T08:19:34;99448.39;;;8.43;85.44
70488;BME280;57976;48.174;16.370;2024-03-06T08:21:39;99450.40;;;8.43;85.58
70488;BME280;57976;48.174;16.370;2024-03-06T08:23:43;99454.61;;;8.44;84.39
70488;BME280;57976;48.174;16.370;2024-03-06T08:25:51;99453.30;;;8.40;84.97
70488;BME280;57976;48.174;16.370;2024-03-06T08:28:01;99454.28;;;8.41;85.02
70488;BME280;57976;48.174;16.370;2024-03-06T08:30:07;99454.33;;;8.40;84.73
70488;BME280;57976;48.174;16.370;2024-03-06T08:32:12;99453.92;;;8.41;84.77
70488;BME280;57976;48.174;16.370;2024-03-06T08:34:16;99447.52;;;8.42;84.76
70488;BME280;57976;48.174;16.370;2024-03-06T08:36:22;99456.80;;;8.49;84.30
70488;BME280;57976;48.174;16.370;2024-03-06T08:38:27;99450.63;;;8.57;84.12
70488;BME280;57976;48.174;16.370;2024-03-06T08:40:34;99454.83;;;8.63;83.50
70488;BME280;57976;48.174;16.370;2024-03-06T08:42:41;99453.73;;;8.67;82.52
70488;BME280;57976;48.174;16.370;2024-03-06T08:44:46;99451.97;;;8.67;82.05
70488;BME280;57976;48.174;16.370;2024-03-06T08:46:53;99456.06;;;8.71;81.98
70488;BME280;57976;48.174;16.370;2024-03-06T08:48:58;99455.23;;;8.76;81.83
70488;BME280;57976;48.174;16.370;2024-03-06T08:51:10;99454.29;;;8.79;81.90
70488;BME280;57976;48.174;16.370;2024-03-06T08:53:15;99454.05;;;8.80;82.37
70488;BME280;57976;48.174;16.370;2024-03-06T08:55:20;99458.56;;;8.82;82.38
70488;BME280;57976;48.174;16.370;2024-03-06T08:57:26;99452.88;;;8.84;82.49
70488;BME280;57976;48.174;16.370;2024-03-06T08:59:31;99454.58;;;8.83;82.33
70488;BME280;57976;48.174;16.370;2024-03-06T09:01:39;99456.40;;;8.82;82.60
70488;BME280;57976;48.174;16.370;2024-03-06T09:03:44;99458.30;;;8.80;82.49
70488;BME280;57976;48.174;16.370;2024-03-06T09:05:48;99457.09;;;8.82;82.79
70488;BME280;57976;48.174;16.370;2024-03-06T09:07:53;99455.30;;;8.85;83.40
70488;BME280;57976;48.174;16.370;2024-03-06T09:09:58;99458.56;;;8.91;83.08
70488;BME280;57976;48.174;16.370;2024-03-06T09:12:03;99455.52;;;8.94;82.95
70488;BME280;57976;48.174;16.370;2024-03-06T09:14:08;99456.49;;;8.99;82.76
70488;BME280;57976;48.174;16.370;2024-03-06T09:16:13;99455.38;;;9.02;82.96
70488;BME280;57976;48.174;16.370;2024-03-06T09:18:21;99455.79;;;9.06;82.03
70488;BME280;57976;48.174;16.370;2024-03-06T09:20:29;99452.70;;;9.08;81.71
70488;BME280;57976;48.174;16.370;2024-03-06T09:22:34;99451.98;;;9.13;80.59
70488;BME280;57976;48.174;16.370;2024-03-06T09:24:38;99445.23;;;9.17;79.99
70488;BME280;57976;48.174;16.370;2024-03-06T09:26:47;99449.17;;;9.22;79.97
70488;BME280;57976;48.174;16.370;2024-03-06T09:28:52;99444.55;;;9.26;80.09
70488;BME280;57976;48.174;16.370;2024-03-06T09:30:57;99443.41;;;9.30;80.24
70488;BME280;57976;48.174;16.370;2024-03-06T09:33:02;99446.55;;;9.34;79.74
70488;BME280;57976;48.174;16.370;2024-03-06T09:35:10;99441.80;;;9.36;79.60
70488;BME280;57976;48.174;16.370;2024-03-06T09:37:19;99442.23;;;9.36;79.34
70488;BME280;57976;48.174;16.370;2024-03-06T09:39:24;99440.41;;;9.42;79.10
70488;BME280;57976;48.174;16.370;2024-03-06T09:41:28;99443.86;;;9.47;78.73
70488;BME280;57976;48.174;16.370;2024-03-06T09:43:33;99438.35;;;9.50;78.50
70488;BME280;57976;48.174;16.370;2024-03-06T09:45:38;99442.05;;;9.54;78.38
70488;BME280;57976;48.174;16.370;2024-03-06T09:47:44;99452.68;;;9.65;77.42
70488;BME280;57976;48.174;16.370;2024-03-06T09:49:54;99450.11;;;9.71;75.82
70488;BME280;57976;48.174;16.370;2024-03-06T09:52:00;99448.02;;;9.75;76.27
70488;BME280;57976;48.174;16.370;2024-03-06T09:54:09;99453.68;;;9.82;75.34
70488;BME280;57976;48.174;16.370;2024-03-06T09:56:14;99447.76;;;9.88;72.49
70488;BME280;57976;48.174;16.370;2024-03-06T09:58:19;99445.97;;;9.91;71.80
70488;BME280;57976;48.174;16.370;2024-03-06T10:00:24;99440.55;;;9.93;72.63
70488;BME280;57976;48.174;16.370;2024-03-06T10:02:34;99433.95;;;9.99;72.49
70488;BME280;57976;48.174;16.370;2024-03-06T10:04:41;99446.11;;;10.12;71.61
70488;BME280;57976;48.174;16.370;2024-03-06T10:06:47;99446.53;;;10.18;70.03
70488;BME280;57976;48.174;16.370;2024-03-06T10:08:53;99439.02;;;10.17;69.00
70488;BME280;57976;48.174;16.370;2024-03-06T10:10:58;99450.42;;;10.20;68.68
70488;BME280;57976;48.174;16.370;2024-03-06T10:13:04;99448.27;;;10.20;67.77
70488;BME280;57976;48.174;16.370;2024-03-06T10:15:09;99441.20;;;10.18;68.93
70488;BME280;57976;48.174;16.370;2024-03-06T10:17:20;99439.33;;;10.19;69.04
70488;BME280;57976;48.174;16.370;2024-03-06T10:19:26;99438.85;;;10.21;68.17
70488;BME280;57976;48.174;16.370;2024-03-06T10:21:34;99435.27;;;10.19;69.08
70488;BME280;57976;48.174;16.370;2024-03-06T10:23:42;99438.32;;;10.21;69.38
70488;BME280;57976;48.174;16.370;2024-03-06T10:25:47;99432.69;;;10.25;68.93
70488;BME280;57976;48.174;16.370;2024-03-06T10:28:08;99431.88;;;10.32;68.42
70488;BME280;57976;48.174;16.370;2024-03-06T10:30:14;99438.59;;;10.41;68.04
70488;BME280;57976;48.174;16.370;2024-03-06T10:34:46;99429.41;;;10.41;67.83
70488;BME280;57976;48.174;16.370;2024-03-06T10:36:55;99429.60;;;10.38;67.99
70488;BME280;57976;48.174;16.370;2024-03-06T10:39:01;99428.27;;;10.39;68.42
70488;BME280;57976;48.174;16.370;2024-03-06T10:41:07;99424.35;;;10.44;67.98
70488;BME280;57976;48.174;16.370;2024-03-06T10:43:12;99429.77;;;10.56;67.96
70488;BME280;57976;48.174;16.370;2024-03-06T10:45:17;99429.23;;;10.64;66.45
70488;BME280;57976;48.174;16.370;2024-03-06T10:47:24;99418.27;;;10.69;66.23
70488;BME280;57976;48.174;16.370;2024-03-06T10:49:30;99419.55;;;10.69;66.06
70488;BME280;57976;48.174;16.370;2024-03-06T10:51:39;99428.80;;;10.69;66.29
70488;BME280;57976;48.174;16.370;2024-03-06T10:53:44;99424.13;;;10.68;65.48
70488;BME280;57976;48.174;16.370;2024-03-06T10:55:50;99427.88;;;10.65;64.90
70488;BME280;57976;48.174;16.370;2024-03-06T10:57:56;99431.48;;;10.65;64.91
70488;BME280;57976;48.174;16.370;2024-03-06T11:00:02;99434.84;;;10.70;64.18
70488;BME280;57976;48.174;16.370;2024-03-06T11:02:11;99422.63;;;10.73;64.89
70488;BME280;57976;48.174;16.370;2024-03-06T11:04:16;99418.59;;;10.77;64.90
70488;BME280;57976;48.174;16.370;2024-03-06T11:06:22;99417.05;;;10.83;64.54
70488;BME280;57976;48.174;16.370;2024-03-06T11:08:27;99414.98;;;10.90;64.12